createdAt,value
2023-04-28T00:02:03.893Z,11.75
2023-04-28T00:04:30.691Z,12.57
2023-04-28T00:06:57.335Z,12.13
2023-04-28T00:09:24.213Z,11.15
2023-04-28T00:11:50.767Z,12.30
2023-04-28T00:14:17.500Z,10.73
2023-04-28T00:16:44.400Z,10.80
2023-04-28T00:19:11.079Z,11.15
2023-04-28T00:21:37.531Z,10.23
2023-04-28T00:24:04.072Z,11.25
2023-04-28T00:26:30.699Z,12.05
2023-04-28T00:28:57.111Z,12.07
2023-04-28T00:31:23.817Z,9.13
2023-04-28T00:33:50.481Z,10.38
2023-04-28T00:36:17.050Z,9.63
2023-04-28T00:38:43.591Z,9.82
2023-04-28T00:41:11.405Z,9.05
2023-04-28T00:43:47.799Z,11.02
2023-04-28T00:46:43.697Z,11.07
2023-04-28T00:49:10.726Z,8.90
2023-04-28T00:51:37.233Z,8.68
2023-04-28T00:54:04.153Z,9.10
2023-04-28T00:56:33.184Z,11.60
2023-04-28T00:58:59.703Z,11.95
2023-04-28T01:01:26.259Z,10.60
2023-04-28T01:03:53.092Z,9.90
2023-04-28T01:06:20.344Z,10.68
2023-04-28T01:08:48.833Z,10.73
2023-04-28T01:11:15.444Z,10.68
2023-04-28T01:13:41.866Z,10.07
2023-04-28T01:16:08.285Z,12.10
2023-04-28T01:18:35.028Z,10.73
2023-04-28T01:21:01.519Z,10.85
2023-04-28T01:23:27.961Z,11.00
2023-04-28T01:25:54.361Z,11.75
2023-04-28T01:28:20.994Z,10.68
2023-04-28T01:30:47.417Z,11.50
2023-04-28T01:33:13.809Z,11.27
2023-04-28T01:35:40.259Z,11.35
2023-04-28T01:38:06.811Z,12.52
2023-04-28T01:40:33.358Z,11.45
2023-04-28T01:42:59.871Z,11.07
2023-04-28T01:45:26.385Z,9.88
2023-04-28T01:47:52.905Z,10.52
2023-04-28T01:50:19.356Z,10.50
2023-04-28T01:52:45.865Z,9.57
2023-04-28T01:55:12.282Z,8.95
2023-04-28T01:57:38.739Z,9.07
2023-04-28T02:00:05.631Z,9.05
2023-04-28T02:02:32.264Z,9.27
2023-04-28T02:04:58.782Z,9.60
2023-04-28T02:07:25.421Z,9.15
2023-04-28T02:09:51.926Z,9.75
2023-04-28T02:12:18.345Z,9.63
2023-04-28T02:14:45.052Z,9.27
2023-04-28T02:17:11.557Z,8.73
2023-04-28T02:19:38.738Z,9.48
2023-04-28T02:22:05.153Z,7.95
2023-04-28T02:24:34.820Z,8.32
2023-04-28T02:27:01.327Z,9.65
2023-04-28T02:29:27.801Z,9.65
2023-04-28T02:31:54.362Z,9.02
2023-04-28T02:34:21.397Z,9.85
2023-04-28T02:36:48.421Z,9.52
2023-04-28T02:39:14.856Z,9.68
2023-04-28T02:41:41.523Z,9.02
2023-04-28T02:44:27.077Z,8.57
2023-04-28T02:46:53.623Z,8.98
2023-04-28T02:49:20.108Z,9.85
2023-04-28T02:51:46.585Z,9.15
2023-04-28T02:54:13.132Z,8.18
2023-04-28T02:56:41.404Z,9.20
2023-04-28T02:59:08.149Z,10.18
2023-04-28T03:01:34.746Z,8.77
2023-04-28T03:04:01.555Z,9.77
2023-04-28T03:06:28.389Z,10.45
2023-04-28T03:08:54.981Z,9.70
2023-04-28T03:11:21.693Z,10.02
2023-04-28T03:13:48.097Z,9.93
2023-04-28T03:16:14.599Z,9.82
2023-04-28T03:18:41.238Z,11.88
2023-04-28T03:21:07.814Z,10.98
2023-04-28T03:23:34.304Z,10.55
2023-04-28T03:26:00.718Z,10.85
2023-04-28T03:28:27.154Z,11.18
2023-04-28T03:30:54.815Z,10.73
2023-04-28T03:33:21.364Z,10.88
2023-04-28T03:35:47.884Z,11.30
2023-04-28T03:38:14.707Z,10.13
2023-04-28T03:40:41.364Z,10.30
2023-04-28T03:43:07.870Z,9.65
2023-04-28T03:45:34.369Z,10.73
2023-04-28T03:48:00.816Z,12.05
2023-04-28T03:50:27.310Z,11.55
2023-04-28T03:52:53.821Z,10.73
2023-04-28T03:55:20.204Z,11.80
2023-04-28T03:57:46.983Z,11.38
2023-04-28T04:00:14.377Z,11.27
2023-04-28T04:02:41.006Z,12.60
2023-04-28T04:05:07.873Z,11.55
2023-04-28T04:07:34.420Z,11.65
2023-04-28T04:10:03.291Z,11.88
2023-04-28T04:12:30.802Z,11.48
2023-04-28T04:14:57.252Z,12.50
2023-04-28T04:17:23.804Z,11.10
2023-04-28T04:19:50.259Z,12.43
2023-04-28T04:22:16.749Z,13.40
2023-04-28T04:24:43.221Z,11.90
2023-04-28T04:27:09.674Z,10.55
2023-04-28T04:29:39.413Z,11.45
2023-04-28T04:32:05.916Z,11.43
2023-04-28T04:34:32.559Z,9.68
2023-04-28T04:36:59.026Z,9.65
2023-04-28T04:39:25.539Z,9.73
2023-04-28T04:41:52.564Z,8.82
2023-04-28T04:44:19.312Z,10.00
2023-04-28T04:46:46.369Z,8.98
2023-04-28T04:49:12.955Z,8.15
2023-04-28T04:51:39.424Z,8.10
2023-04-28T04:54:06.000Z,8.88
2023-04-28T04:56:32.529Z,8.43
2023-04-28T04:58:59.028Z,9.70
2023-04-28T05:01:25.618Z,8.43
2023-04-28T05:03:52.316Z,8.13
2023-04-28T05:06:18.945Z,7.30
2023-04-28T05:08:45.332Z,8.10
2023-04-28T05:11:11.849Z,7.65
2023-04-28T05:13:39.405Z,7.88
2023-04-28T05:16:06.333Z,7.55
2023-04-28T05:18:32.888Z,7.05
2023-04-28T05:20:59.421Z,7.30
2023-04-28T05:23:26.021Z,6.03
2023-04-28T05:25:52.454Z,7.55
2023-04-28T05:28:21.329Z,8.40
2023-04-28T05:30:48.433Z,9.02
2023-04-28T05:33:15.008Z,8.05
2023-04-28T05:35:41.476Z,6.35
2023-04-28T05:38:08.137Z,4.90
2023-04-28T05:40:34.584Z,5.90
2023-04-28T05:43:01.242Z,5.85
2023-04-28T05:45:27.821Z,5.60
2023-04-28T05:47:54.818Z,4.90
2023-04-28T05:50:21.735Z,4.18
2023-04-28T05:52:48.225Z,3.67
2023-04-28T05:55:14.743Z,4.38
2023-04-28T05:57:51.839Z,4.13
2023-04-28T06:00:51.384Z,4.00
2023-04-28T06:03:19.040Z,4.07
2023-04-28T06:05:46.254Z,3.97
2023-04-28T06:08:12.958Z,4.72
2023-04-28T06:10:39.449Z,4.53
2023-04-28T06:13:06.582Z,3.88
2023-04-28T06:15:54.135Z,4.10
2023-04-28T06:18:20.794Z,3.63
2023-04-28T06:20:47.524Z,4.35
2023-04-28T06:23:13.992Z,4.03
2023-04-28T16:41:50.011Z,2.25
2023-04-28T16:44:16.728Z,2.90
2023-04-28T16:46:43.216Z,3.58
2023-04-28T16:49:09.622Z,3.53
2023-04-28T16:51:36.144Z,3.47
2023-04-28T16:54:02.669Z,3.80
2023-04-28T16:56:29.238Z,4.32
2023-04-28T16:58:55.834Z,4.82
2023-04-28T17:01:22.402Z,4.95
2023-04-28T17:03:50.451Z,4.30
2023-04-28T17:06:16.937Z,3.95
2023-04-28T17:08:43.425Z,3.88
2023-04-28T17:11:09.883Z,3.80
2023-04-28T17:13:36.377Z,3.53
2023-04-28T17:16:03.975Z,3.20
2023-04-28T17:18:31.133Z,3.67
2023-04-28T17:20:57.794Z,4.63
2023-04-28T17:23:24.298Z,4.70
2023-04-28T17:25:50.941Z,4.95
2023-04-28T17:28:17.433Z,4.45
2023-04-28T17:30:46.916Z,4.65
2023-04-28T17:33:13.936Z,4.38
2023-04-28T17:35:40.468Z,4.25
2023-04-28T17:38:06.957Z,4.07
2023-04-28T17:40:33.393Z,6.15
2023-04-28T17:42:59.968Z,6.90
2023-04-28T17:45:26.470Z,7.47
2023-04-28T17:47:53.165Z,7.72
2023-04-28T17:50:19.694Z,7.10
2023-04-28T17:52:46.273Z,6.90
2023-04-28T17:55:13.170Z,6.60
2023-04-28T17:57:39.701Z,7.80
2023-04-28T18:00:06.997Z,6.40
2023-04-28T18:02:33.541Z,5.93
2023-04-28T18:05:00.331Z,5.78
2023-04-28T18:07:27.037Z,9.02
2023-04-28T18:09:53.753Z,7.00
2023-04-28T18:12:20.211Z,6.93
2023-04-28T18:14:46.724Z,6.18
2023-04-28T18:17:13.299Z,6.32
2023-04-28T18:19:39.869Z,7.90
2023-04-28T18:22:06.637Z,8.48
2023-04-28T18:24:33.430Z,9.00
2023-04-28T18:26:59.854Z,7.57
2023-04-28T18:29:26.301Z,7.82
2023-04-28T18:31:52.833Z,7.75
2023-04-28T18:34:19.892Z,9.10
2023-04-28T18:36:46.372Z,8.65
2023-04-28T18:39:12.974Z,8.80
2023-04-28T18:41:40.120Z,8.13
2023-04-28T18:44:06.913Z,9.20
2023-04-28T18:46:34.024Z,8.07
2023-04-28T18:49:00.606Z,8.30
2023-04-28T18:51:27.168Z,13.77
2023-04-28T18:53:53.669Z,13.52
2023-04-28T18:56:21.121Z,12.45
2023-04-28T18:58:47.998Z,12.60
2023-04-28T19:01:15.481Z,11.77
2023-04-28T19:03:42.485Z,12.02
2023-04-28T19:06:09.115Z,14.90
2023-04-28T19:08:38.969Z,18.50
2023-04-28T19:11:09.575Z,21.23
2023-04-28T19:13:36.872Z,24.38
2023-04-28T19:16:03.640Z,26.63
2023-04-28T19:18:32.313Z,28.83
2023-04-28T19:21:08.577Z,28.98
2023-04-28T19:23:35.107Z,29.55
2023-04-28T19:26:02.032Z,28.55
2023-04-28T19:28:28.966Z,26.92
2023-04-28T19:30:58.716Z,25.42
2023-04-28T19:33:45.480Z,23.98
2023-04-28T19:36:11.924Z,22.40
2023-04-28T19:38:40.342Z,22.38
2023-04-28T19:41:07.309Z,20.58
2023-04-28T19:43:33.727Z,18.17
2023-04-28T19:46:00.242Z,17.90
2023-04-28T19:48:26.921Z,17.15
2023-04-28T19:50:53.676Z,16.17
2023-04-28T19:53:20.215Z,15.98
2023-04-28T19:55:46.651Z,17.10
2023-04-28T19:58:14.011Z,18.02
2023-04-28T20:00:40.482Z,18.92
2023-04-28T20:03:25.812Z,19.77
2023-04-28T20:05:52.466Z,20.25
2023-04-28T20:08:19.696Z,20.67
2023-04-28T20:10:46.940Z,21.48
2023-04-28T20:13:15.154Z,21.42
2023-04-28T20:15:42.407Z,21.30
2023-04-28T20:18:08.981Z,22.42
2023-04-28T20:20:35.598Z,22.70
2023-04-28T20:23:02.137Z,17.90
2023-04-28T20:25:28.986Z,16.30
2023-04-28T20:27:55.516Z,15.85
2023-04-28T20:30:22.052Z,14.25
2023-04-28T20:32:49.415Z,12.38
2023-04-28T20:35:15.883Z,12.60
2023-04-28T20:37:42.388Z,13.82
2023-04-28T20:40:10.522Z,13.43
2023-04-28T20:42:37.026Z,11.65
2023-04-28T20:45:04.600Z,10.98
2023-04-28T20:47:32.092Z,10.80
2023-04-28T20:49:58.626Z,10.15
2023-04-28T20:52:25.132Z,10.35
2023-04-28T20:54:54.057Z,9.20
2023-04-28T20:57:21.507Z,9.50
2023-04-28T20:59:47.952Z,10.63
2023-04-28T21:02:14.506Z,10.98
2023-04-28T21:04:41.120Z,10.18
2023-04-28T21:07:07.559Z,10.82
2023-04-28T21:09:35.842Z,9.65
2023-04-28T21:12:02.272Z,8.43
2023-04-28T21:14:28.896Z,8.68
2023-04-28T21:16:55.557Z,7.22
2023-04-28T21:19:22.192Z,6.20
2023-04-28T21:21:48.757Z,6.95
2023-04-28T21:24:15.317Z,6.55
2023-04-28T21:26:42.278Z,5.68
2023-04-28T21:29:09.383Z,7.65
2023-04-28T21:31:36.214Z,5.80
2023-04-28T21:34:46.500Z,5.93
2023-04-28T21:37:12.998Z,5.50
2023-04-28T21:39:39.514Z,7.22
2023-04-28T21:42:08.137Z,6.35
2023-04-28T21:44:34.782Z,7.82
2023-04-28T21:47:01.235Z,7.95
2023-04-28T21:49:27.745Z,6.93
2023-04-28T21:51:54.310Z,6.28
2023-04-28T21:54:21.207Z,5.80
2023-04-28T21:56:47.664Z,5.80
2023-04-28T21:59:14.294Z,5.40
2023-04-28T22:01:41.665Z,4.80
2023-04-28T22:04:08.952Z,5.03
2023-04-28T22:06:35.851Z,4.40
2023-04-28T22:09:02.299Z,4.97
2023-04-28T22:11:28.921Z,5.60
2023-04-28T22:13:55.620Z,6.28
2023-04-28T22:16:22.336Z,6.57
2023-04-28T22:18:48.826Z,5.95
2023-04-28T22:21:15.548Z,5.90
2023-04-28T22:23:42.006Z,5.28
2023-04-28T22:26:08.573Z,6.05
2023-04-28T22:28:35.495Z,5.75
2023-04-28T22:31:02.260Z,6.32
2023-04-28T22:33:43.936Z,5.07
2023-04-28T22:36:15.827Z,5.13
2023-04-28T22:41:11.790Z,5.30
2023-04-28T22:43:38.476Z,5.43
2023-04-28T22:46:04.926Z,5.20
2023-04-28T22:48:43.864Z,5.20
2023-04-28T22:51:11.882Z,4.88
2023-04-28T22:53:40.718Z,4.63
2023-04-28T22:56:12.081Z,4.82
2023-04-28T22:58:38.688Z,5.28
2023-04-28T23:01:06.917Z,5.43
2023-04-28T23:03:34.999Z,5.13
2023-04-28T23:06:02.982Z,5.25
2023-04-28T23:08:30.930Z,5.60
2023-04-28T23:10:58.553Z,5.07
2023-04-28T23:13:27.277Z,5.05
2023-04-28T23:15:54.363Z,4.75
2023-04-28T23:18:22.147Z,4.22
2023-04-28T23:20:50.507Z,4.35
2023-04-28T23:23:18.110Z,3.65
2023-04-28T23:25:44.710Z,3.70
2023-04-28T23:28:13.519Z,3.92
2023-04-28T23:30:41.527Z,3.67
2023-04-28T23:33:11.096Z,3.60
2023-04-28T23:35:40.522Z,4.10
2023-04-28T23:38:08.449Z,3.65
2023-04-28T23:40:36.387Z,3.90
2023-04-28T23:43:04.623Z,4.05
2023-04-28T23:45:31.485Z,4.43
2023-04-28T23:47:59.238Z,3.90
2023-04-28T23:50:27.938Z,4.45
2023-04-28T23:52:54.380Z,5.20
2023-04-28T23:55:20.804Z,5.20
2023-04-28T23:57:47.424Z,5.88
